Pine Lake, Georgia
Current Conditions -  °F | °C
As of 6:53 PM on Wednesday 17 Dec 2014 (Local Time) from KPDK Reporting Station
Clear Clear  
Wind Chill: 38°   Ceiling: Unl
Heat Index: 42°   Visibility: 10mi
Dew Point: 35°   Wind: 7mph
Humidity: 76%   Direction: 300°WNW
Pressure: 30.16"   Gusts: NA
Location:  33.79°N, 84.21°W
Report Text: KPDK 172353Z 30006KT 10SM CLR 06/02 A3016 RMK AO2 SLP225 T00560017 10094 20050 53008
Loading
Personal Weather Stations






























Interactive Weather Map New forecast layout! Learn more

10-Day Weather Forecast

Advertisements
Track Severe Weather on mobile